PWSweather.com
Personal Weather Stations
Station Observations
WEATHERMOR
MorskoSI

MorskoSI

Lat: 46.075894, Lon: 13.634103

Elevation: 149

Station Type: WS2350

http://vp-morskovreme.com

Latest ConditionsUpdated 5:20:00 AM GMT+01:01 Tuesday, Oct 23, 2018
Currently Today's Max Today's Min Today's Average
Temperature 51.1°F10.6°C 51.6°F10.9°C 50.5°F10.3°C 51.0°F10.6°C
Dew Point 43.8°F6.6°C 44.1°F6.7°C 42.7°F5.9°C 43.6°F6.4°C
Winds 2.7 mph NE4.3 kmh NE 7.0 mph -11.3 kmh - - 3.3 mph 5.3 kmh
Wind Gusts 6.9 mph11.1 kmh 13.9 mph22.4 kmh - -
Humidity 76% 77% 73% 76%
Pressure 30.25 in1024.4 mb 30.28 in1025.4 mb 30.25 in1024.4 mb -
Hour Temp Dew Point Humidity Winds Wind Gusts Pressure Precip Precip Rate Daily Precip Total
05:20 AM 51.1°F10.6°C 43.8°F6.6°C 76% 2.7 mph NE4.3 kmh NE 6.9 mph11.1 kmh 30.25 in1024.4 mb 0.00 in0.0 mm 0.00 in0.0 mm 0.00 in0.0 mm
05:10 AM 51.1°F10.6°C 43.8°F6.6°C 76% 3.5 mph NE5.6 kmh NE 8.9 mph14.3 kmh 30.25 in1024.4 mb 0.00 in0.0 mm 0.00 in0.0 mm 0.00 in0.0 mm
05:00 AM 51.1°F10.6°C 43.8°F6.6°C 76% 3.3 mph ENE5.3 kmh ENE 6.7 mph10.8 kmh 30.26 in1024.7 mb 0.00 in0.0 mm 0.00 in0.0 mm 0.00 in0.0 mm
04:50 AM 51.1°F10.6°C 43.8°F6.6°C 76% 1.9 mph NE3.1 kmh NE 5.4 mph8.7 kmh 30.26 in1024.7 mb 0.00 in0.0 mm 0.00 in0.0 mm 0.00 in0.0 mm
04:40 AM 51.1°F10.6°C 44.1°F6.7°C 77% 2.6 mph NNE4.2 kmh NNE 5.8 mph9.3 kmh 30.26 in1024.7 mb 0.00 in0.0 mm 0.00 in0.0 mm 0.00 in0.0 mm
04:30 AM 50.9°F10.5°C 43.9°F6.6°C 77% 4.3 mph NE6.9 kmh NE 9.2 mph14.8 kmh 30.26 in1024.7 mb 0.00 in0.0 mm 0.00 in0.0 mm 0.00 in0.0 mm
04:20 AM 50.5°F10.3°C 43.6°F6.4°C 77% 3.3 mph E5.3 kmh E 9.8 mph15.8 kmh 30.25 in1024.4 mb 0.00 in0.0 mm 0.00 in0.0 mm 0.00 in0.0 mm
04:10 AM 50.5°F10.3°C 43.6°F6.4°C 77% 2.6 mph E4.2 kmh E 6.7 mph10.8 kmh 30.25 in1024.4 mb 0.00 in0.0 mm 0.00 in0.0 mm 0.00 in0.0 mm
04:00 AM 50.5°F10.3°C 43.6°F6.4°C 77% 2.1 mph ENE3.4 kmh ENE 5.1 mph8.2 kmh 30.25 in1024.4 mb 0.00 in0.0 mm 0.00 in0.0 mm 0.00 in0.0 mm
03:50 AM 50.5°F10.3°C 43.6°F6.4°C 77% 3.2 mph NE5.1 kmh NE 9.6 mph15.4 kmh 30.25 in1024.4 mb 0.00 in0.0 mm 0.00 in0.0 mm 0.00 in0.0 mm
03:40 AM 50.5°F10.3°C 43.6°F6.4°C 77% 7.0 mph NNE11.3 kmh NNE 12.3 mph19.8 kmh 30.25 in1024.4 mb 0.00 in0.0 mm 0.00 in0.0 mm 0.00 in0.0 mm
03:30 AM 50.7°F10.4°C 43.8°F6.6°C 77% 6.5 mph NNE10.5 kmh NNE 13.6 mph21.9 kmh 30.25 in1024.4 mb 0.00 in0.0 mm 0.00 in0.0 mm 0.00 in0.0 mm
03:20 AM 50.7°F10.4°C 43.8°F6.6°C 77% 2.7 mph NE4.3 kmh NE 5.6 mph9.0 kmh 30.25 in1024.4 mb 0.00 in0.0 mm 0.00 in0.0 mm 0.00 in0.0 mm
03:10 AM 50.9°F10.5°C 43.9°F6.6°C 77% 2.6 mph NE4.2 kmh NE 6.3 mph10.1 kmh 30.26 in1024.7 mb 0.00 in0.0 mm 0.00 in0.0 mm 0.00 in0.0 mm
03:00 AM 50.9°F10.5°C 43.9°F6.6°C 77% 5.5 mph NNE8.9 kmh NNE 13.9 mph22.4 kmh 30.25 in1024.4 mb 0.00 in0.0 mm 0.00 in0.0 mm 0.00 in0.0 mm
02:50 AM 51.1°F10.6°C 43.8°F6.6°C 76% 5.3 mph NE8.5 kmh NE 11.2 mph18.0 kmh 30.25 in1024.4 mb 0.00 in0.0 mm 0.00 in0.0 mm 0.00 in0.0 mm
02:40 AM 51.1°F10.6°C 43.8°F6.6°C 76% 4.3 mph NE6.9 kmh NE 10.7 mph17.2 kmh 30.25 in1024.4 mb 0.00 in0.0 mm 0.00 in0.0 mm 0.00 in0.0 mm
02:30 AM 51.4°F10.8°C 44.1°F6.7°C 76% 4.2 mph NE6.8 kmh NE 9.2 mph14.8 kmh 30.25 in1024.4 mb 0.00 in0.0 mm 0.00 in0.0 mm 0.00 in0.0 mm
02:20 AM 51.4°F10.8°C 44.1°F6.7°C 76% 3.3 mph NE5.3 kmh NE 7.2 mph11.6 kmh 30.27 in1025.1 mb 0.00 in0.0 mm 0.00 in0.0 mm 0.00 in0.0 mm
02:10 AM 51.6°F10.9°C 44.0°F6.7°C 75% 3.9 mph NE6.3 kmh NE 7.8 mph12.6 kmh 30.27 in1025.1 mb 0.00 in0.0 mm 0.00 in0.0 mm 0.00 in0.0 mm
02:00 AM 51.6°F10.9°C 44.0°F6.7°C 75% 3.9 mph NE6.3 kmh NE 7.8 mph12.6 kmh 30.27 in1025.1 mb 0.00 in0.0 mm 0.00 in0.0 mm 0.00 in0.0 mm
01:50 AM 51.4°F10.8°C 43.8°F6.6°C 75% 2.8 mph NE4.5 kmh NE 6.0 mph9.7 kmh 30.27 in1025.1 mb 0.00 in0.0 mm 0.00 in0.0 mm 0.00 in0.0 mm
01:40 AM 51.3°F10.7°C 43.6°F6.4°C 75% 3.2 mph NE5.1 kmh NE 6.3 mph10.1 kmh 30.27 in1025.1 mb 0.00 in0.0 mm 0.00 in0.0 mm 0.00 in0.0 mm
01:30 AM 51.1°F10.6°C 43.4°F6.3°C 75% 2.9 mph ENE4.7 kmh ENE 6.5 mph10.5 kmh 30.27 in1025.1 mb 0.00 in0.0 mm 0.00 in0.0 mm 0.00 in0.0 mm
01:20 AM 51.1°F10.6°C 43.4°F6.3°C 75% 2.1 mph NE3.4 kmh NE 5.1 mph8.2 kmh 30.27 in1025.1 mb 0.00 in0.0 mm 0.00 in0.0 mm 0.00 in0.0 mm
01:10 AM 51.1°F10.6°C 43.4°F6.3°C 75% 2.0 mph E3.2 kmh E 3.8 mph6.1 kmh 30.27 in1025.1 mb 0.00 in0.0 mm 0.00 in0.0 mm 0.00 in0.0 mm
01:00 AM 50.9°F10.5°C 43.3°F6.3°C 75% 1.9 mph E3.1 kmh E 4.7 mph7.6 kmh 30.27 in1025.1 mb 0.00 in0.0 mm 0.00 in0.0 mm 0.00 in0.0 mm
12:50 AM 51.1°F10.6°C 43.1°F6.2°C 74% 0.9 mph SE1.4 kmh SE 3.1 mph5.0 kmh 30.27 in1025.1 mb 0.00 in0.0 mm 0.00 in0.0 mm 0.00 in0.0 mm
12:40 AM 51.1°F10.6°C 43.1°F6.2°C 74% 0.7 mph ESE1.1 kmh ESE 4.0 mph6.4 kmh 30.27 in1025.1 mb 0.00 in0.0 mm 0.00 in0.0 mm 0.00 in0.0 mm
12:30 AM 51.1°F10.6°C 43.1°F6.2°C 74% 4.2 mph NNE6.8 kmh NNE 8.5 mph13.7 kmh 30.26 in1024.7 mb 0.00 in0.0 mm 0.00 in0.0 mm 0.00 in0.0 mm
12:20 AM 51.1°F10.6°C 43.1°F6.2°C 74% 4.2 mph NNE6.8 kmh NNE 7.2 mph11.6 kmh 30.27 in1025.1 mb 0.00 in0.0 mm 0.00 in0.0 mm 0.00 in0.0 mm
12:10 AM 51.1°F10.6°C 42.7°F5.9°C 73% 3.4 mph NE5.5 kmh NE 8.1 mph13.0 kmh 30.27 in1025.1 mb 0.00 in0.0 mm 0.00 in0.0 mm 0.00 in0.0 mm
12:00 AM 51.4°F10.8°C 43.1°F6.2°C 73% 2.7 mph E4.3 kmh E 7.6 mph12.2 kmh 30.28 in1025.4 mb 0.00 in0.0 mm 0.00 in0.0 mm 0.00 in0.0 mm